Weather reports worldwide

Advertisment
Chatillon/Seine, France (7276): temperature & dewpoint: 16.02.2019 22:00:00 - 22.02.2019 22:00:00 (CET)Chatillon/Seine, France (7276): wind speed & gusts: 16.02.2019 22:00:00 - 22.02.2019 22:00:00 (CET)Chatillon/Seine, France (7276): wind direction: 16.02.2019 22:00:00 - 22.02.2019 22:00:00 (CET)Chatillon/Seine, France (7276): sunshine duration: 16.02.2019 22:00:00 - 22.02.2019 22:00:00 (CET)Chatillon/Seine, France (7276): precipitation: 16.02.2019 22:00:00 - 22.02.2019 22:00:00 (CET)
Date & Time tt [°C] td [°C] ff [km/h] ff [kn] fx [km/h] fx [kn] dd sd [min] rr [mm]
22.02.2019 22:00:00 7,3 5,4 5 3 11 6 ENE 0 0,0
22.02.2019 21:00:00 8,7 5,4 8 4 16 9 NNE 0 0,0
22.02.2019 20:00:00 10,1 6,1 9 5 24 13 ENE 0 0,0
22.02.2019 19:00:00 11,6 6,9 11 6 24 13 NE 0 -
22.02.2019 18:00:00 13,6 7,4 13 7 22 12 NE 30 0,0
22.02.2019 17:00:00 15,5 6,5 8 4 21 11 ENE 60 0,0
22.02.2019 16:00:00 16,1 5,7 13 7 26 14 NE 60 0,0
22.02.2019 15:00:00 16,5 4,2 4 2 15 8 N 60 0,0
22.02.2019 14:00:00 15,4 4,4 4 2 15 8 NNW 60 0,0
22.02.2019 13:00:00 13,3 5,9 5 3 15 8 N 60 -
22.02.2019 12:00:00 11,3 6,4 2 1 5 3 W 36 0,0
22.02.2019 11:00:00 7,2 5,7 2 1 5 3 N 30 0,0
22.02.2019 10:00:00 4,0 4,0 0 0 5 3 N 18 0,0
22.02.2019 09:00:00 0,8 0,8 8 4 11 6 SSW 6 0,0
22.02.2019 08:00:00 -0,7 -0,7 5 3 8 4 SW 0 0,0
22.02.2019 07:00:00 -2,0 -2,0 4 2 9 5 ESE 0 -
22.02.2019 06:00:00 -0,7 -0,7 8 4 11 6 SSW 0 0,0
22.02.2019 05:00:00 -0,6 -0,6 0 0 8 4 N 0 0,0
22.02.2019 04:00:00 0,0 0,0 4 2 8 4 S 0 0,0
22.02.2019 03:00:00 0,2 0,2 4 2 8 4 SSW 0 0,0
22.02.2019 02:00:00 -0,1 -0,5 4 2 8 4 S 0 0,0
22.02.2019 01:00:00 2,1 1,8 8 4 9 5 S 0 -
22.02.2019 00:00:00 2,1 0,8 2 1 5 3 S 0 0,0
21.02.2019 23:00:00 2,5 1,2 2 1 11 6 SSE 0 0,0
21.02.2019 22:00:00 4,0 1,7 8 4 11 6 SSW 0 0,0
21.02.2019 21:00:00 5,0 1,5 4 2 8 4 ESE 0 0,0
21.02.2019 20:00:00 6,6 1,7 4 2 5 3 SSE 0 0,0
21.02.2019 19:00:00 11,0 2,6 4 2 9 5 WSW 0 -
21.02.2019 18:00:00 13,3 2,8 5 3 15 8 WNW 36 0,0
21.02.2019 17:00:00 15,5 2,6 9 5 16 9 NW 60 0,0
21.02.2019 16:00:00 16,5 3,9 4 2 16 9 W 60 0,0
21.02.2019 15:00:00 15,7 4,7 8 4 16 9 WNW 48 0,0
21.02.2019 14:00:00 - - - - - - - - -
21.02.2019 13:00:00 - - - - - - - - -
21.02.2019 12:00:00 - - - - - - - - -
21.02.2019 11:00:00 - - - - - - - - -
21.02.2019 10:00:00 - - - - - - - - -
21.02.2019 09:00:00 - - - - - - - - -
21.02.2019 08:00:00 - - - - - - - - -
21.02.2019 07:00:00 - - - - - - - - -
21.02.2019 06:00:00 - - - - - - - - -
21.02.2019 05:00:00 - - - - - - - - -
21.02.2019 04:00:00 - - - - - - - - -
21.02.2019 03:00:00 - - - - - - - - -
21.02.2019 02:00:00 - - - - - - - - -
21.02.2019 01:00:00 - - - - - - - - -
21.02.2019 00:00:00 - - - - - - - - -
20.02.2019 23:00:00 - - - - - - - - -
20.02.2019 22:00:00 - - - - - - - - -
20.02.2019 21:00:00 - - - - - - - - -
20.02.2019 20:00:00 - - - - - - - - -
20.02.2019 19:00:00 - - - - - - - - -
20.02.2019 18:00:00 - - - - - - - - -
20.02.2019 17:00:00 - - - - - - - - -
20.02.2019 16:00:00 - - - - - - - - -
20.02.2019 15:00:00 - - - - - - - - -
20.02.2019 14:00:00 - - - - - - - - -
20.02.2019 13:00:00 - - - - - - - - -
20.02.2019 12:00:00 - - - - - - - - -
20.02.2019 11:00:00 - - - - - - - - -
20.02.2019 10:00:00 - - - - - - - - -
20.02.2019 09:00:00 - - - - - - - - -
20.02.2019 08:00:00 - - - - - - - - -
20.02.2019 07:00:00 - - - - - - - - -
20.02.2019 06:00:00 - - - - - - - - -
20.02.2019 05:00:00 - - - - - - - - -
20.02.2019 04:00:00 - - - - - - - - -
20.02.2019 03:00:00 - - - - - - - - -
20.02.2019 02:00:00 - - - - - - - - -
20.02.2019 01:00:00 - - - - - - - - -
20.02.2019 00:00:00 - - - - - - - - -
19.02.2019 23:00:00 - - - - - - - - -
19.02.2019 22:00:00 - - - - - - - - -
19.02.2019 21:00:00 - - - - - - - - -
19.02.2019 20:00:00 - - - - - - - - -
19.02.2019 19:00:00 - - - - - - - - -
19.02.2019 18:00:00 - - - - - - - - -
19.02.2019 17:00:00 - - - - - - - - -
19.02.2019 16:00:00 - - - - - - - - -
19.02.2019 15:00:00 - - - - - - - - -
19.02.2019 14:00:00 9,1 6,5 4 2 9 5 SW 0 0,0
19.02.2019 13:00:00 8,4 6,2 4 2 9 5 SW 0 -
19.02.2019 12:00:00 7,5 6,0 4 2 13 7 WSW 0 0,0
19.02.2019 11:00:00 6,6 5,9 8 4 13 7 SSW 0 0,0
19.02.2019 10:00:00 5,9 4,9 8 4 9 5 SSW 0 0,4
19.02.2019 09:00:00 5,7 3,2 5 3 9 5 W 0 0,0
19.02.2019 08:00:00 6,3 3,1 8 4 13 7 WSW 0 0,0
19.02.2019 07:00:00 6,0 2,5 9 5 18 10 SSW 0 -
19.02.2019 06:00:00 5,6 2,4 9 5 13 7 S 0 0,0
19.02.2019 05:00:00 4,8 1,3 5 3 9 5 SW 0 0,0
19.02.2019 04:00:00 5,5 1,2 9 5 16 9 SSW 0 0,0
19.02.2019 03:00:00 4,5 0,8 4 2 9 5 WSW 0 0,0
19.02.2019 02:00:00 5,3 0,5 4 2 13 7 W 0 0,0
19.02.2019 01:00:00 6,0 0,3 8 4 15 8 S 0 -
19.02.2019 00:00:00 5,4 0,6 11 6 21 11 S 0 0,0
18.02.2019 23:00:00 5,1 0,1 16 9 18 10 SSE 0 0,0
18.02.2019 22:00:00 7,0 0,4 11 6 21 11 S 0 0,0
18.02.2019 21:00:00 7,4 0,8 16 9 21 11 SSE 0 0,0
18.02.2019 20:00:00 8,4 -0,1 9 5 15 8 S 0 0,0
18.02.2019 19:00:00 8,3 -1,8 8 4 18 10 SSE 0 -
18.02.2019 18:00:00 11,1 -1,0 16 9 28 15 S 42 0,0
18.02.2019 17:00:00 14,1 0,0 16 9 28 15 S 60 0,0
18.02.2019 16:00:00 14,7 -1,0 18 10 28 15 S 60 0,0
18.02.2019 15:00:00 14,9 -1,2 13 7 24 13 S 60 0,0
18.02.2019 14:00:00 14,8 -0,9 15 8 24 13 SSW 60 0,0
18.02.2019 13:00:00 13,7 0,0 13 7 28 15 SSW 60 -
18.02.2019 12:00:00 12,5 0,9 16 9 28 15 S 60 0,0
18.02.2019 11:00:00 11,1 2,6 16 9 24 13 S 60 0,0
18.02.2019 10:00:00 8,4 3,0 4 2 16 9 SSW 60 0,0
18.02.2019 09:00:00 5,0 2,5 4 2 9 5 SE 48 0,0
18.02.2019 08:00:00 -0,1 -1,8 0 0 5 3 N 0 0,0
18.02.2019 07:00:00 -1,1 -2,7 4 2 9 5 SE 0 -
18.02.2019 06:00:00 -0,5 -3,0 4 2 8 4 WNW 0 0,0
18.02.2019 05:00:00 -0,8 -2,5 2 1 9 5 ESE 0 0,0
18.02.2019 04:00:00 0,6 -1,8 4 2 8 4 ENE 0 0,0
18.02.2019 03:00:00 0,6 -2,1 5 3 9 5 E 0 0,0
18.02.2019 02:00:00 1,6 -1,8 0 0 4 2 N 0 0,0
18.02.2019 01:00:00 2,6 -1,2 0 0 5 3 N 0 -
18.02.2019 00:00:00 3,8 -1,2 2 1 4 2 E 0 0,0
17.02.2019 23:00:00 6,6 -0,6 2 1 11 6 WSW 0 0,0
17.02.2019 22:00:00 7,2 -0,8 8 4 24 13 S 0 0,0
17.02.2019 21:00:00 7,0 0,0 21 11 24 13 SSE 0 0,0
17.02.2019 20:00:00 6,3 -0,7 11 6 15 8 SE 0 0,0
17.02.2019 19:00:00 8,5 -4,0 8 4 11 6 SE 0 -
17.02.2019 18:00:00 13,7 -5,0 8 4 11 6 S 30 0,0
17.02.2019 17:00:00 17,6 -4,4 9 5 16 9 SW 60 0,0
17.02.2019 16:00:00 19,4 -3,5 5 3 18 10 S 60 0,0
17.02.2019 15:00:00 18,6 -4,2 13 7 22 12 SSW 60 0,0
17.02.2019 14:00:00 18,6 -4,8 13 7 24 13 SSW 60 0,0
17.02.2019 13:00:00 17,5 -5,1 16 9 29 16 SSW 60 -
17.02.2019 12:00:00 16,1 -4,0 16 9 22 12 S 60 0,0
17.02.2019 11:00:00 13,4 -2,2 4 2 11 6 SSW 60 0,0
17.02.2019 10:00:00 6,1 1,2 0 0 8 4 N 60 0,0
17.02.2019 09:00:00 2,3 -1,1 0 0 8 4 N 48 0,0
17.02.2019 08:00:00 -1,5 -3,2 5 3 11 6 ESE 0 0,0
17.02.2019 07:00:00 -1,3 -4,0 5 3 9 5 SE 0 -
17.02.2019 06:00:00 -0,2 -2,1 0 0 4 2 N 0 0,0
17.02.2019 05:00:00 -0,4 -2,1 0 0 5 3 N 0 0,0
17.02.2019 04:00:00 0,1 -1,5 0 0 5 3 N 0 0,0
17.02.2019 03:00:00 0,5 -1,0 0 0 4 2 N 0 0,0
17.02.2019 02:00:00 0,5 -1,3 0 0 5 3 N 0 0,0
17.02.2019 01:00:00 1,3 -0,8 0 0 8 4 N 0 -
17.02.2019 00:00:00 1,9 -0,5 0 0 4 2 N 0 0,0
16.02.2019 23:00:00 3,0 -0,6 0 0 4 2 N 0 0,0
16.02.2019 22:00:00 4,0 -1,2 4 2 5 3 SE 0 0,0

tt = temperature
td = dewpoint
ff = wind speed
fx = gusts
dd = wind direction
sd = sunshine duration
rr = precipitation

Next stations